Time,TemperatureF,DewpointF,PressureIn,WindDirection,WindDirectionDegrees,WindSpeedMPH,WindSpeedGustMPH,Humidity,HourlyPrecipIn,Conditions,Clouds,dailyrainin,SoftwareType,DateUTC
2013-04-22 00:01:00,51.4,40.5,29.03,West,263,3.1,5.4,66,0.00,,-RA,0.00,VWS V14.00,2013-04-22 05:01:00,
2013-04-22 00:06:00,51.3,42.5,29.03,West,265,3.1,5.4,72,0.04,,-RA,0.04,VWS V14.00,2013-04-22 05:06:00,
2013-04-22 00:11:00,51.3,43.3,29.03,West,276,2.2,6.3,74,0.04,,-RA,0.04,VWS V14.00,2013-04-22 05:11:00,
2013-04-22 00:16:00,51.1,44.1,29.03,NW,310,0.0,6.3,77,0.04,,-RA,0.04,VWS V14.00,2013-04-22 05:16:00,
2013-04-22 00:21:00,51.1,44.8,29.03,WNW,299,3.1,4.9,79,0.04,,-RA,0.04,VWS V14.00,2013-04-22 05:21:00,
2013-04-22 00:26:00,51.1,45.5,29.03,WNW,294,2.7,4.9,81,0.08,,-RA,0.08,VWS V14.00,2013-04-22 05:26:00,
2013-04-22 00:31:00,51.3,46.0,29.03,WSW,258,4.9,4.9,82,0.08,,-RA,0.08,VWS V14.00,2013-04-22 05:31:00,
2013-04-22 00:36:00,51.1,46.1,29.03,NNW,331,2.7,4.9,83,0.08,,-RA,0.08,VWS V14.00,2013-04-22 05:36:00,
2013-04-22 00:41:00,51.3,46.3,29.03,NNW,342,2.7,4.0,83,0.08,,-RA,0.08,VWS V14.00,2013-04-22 05:41:00,
2013-04-22 00:46:00,51.3,46.6,29.03,WNW,285,0.0,4.0,84,0.08,,-RA,0.08,VWS V14.00,2013-04-22 05:46:00,
2013-04-22 00:51:00,51.3,46.6,29.03,WNW,294,2.2,2.7,84,0.08,,-RA,0.08,VWS V14.00,2013-04-22 05:51:00,
2013-04-22 00:56:00,51.3,46.9,29.03,WNW,294,0.0,3.1,85,0.08,,-RA,0.08,VWS V14.00,2013-04-22 05:56:00,
2013-04-22 01:01:00,51.3,46.9,29.03,WNW,297,0.0,0.0,85,0.08,,-RA,0.08,VWS V14.00,2013-04-22 06:01:00,
2013-04-22 01:06:00,51.3,46.9,29.03,WNW,303,0.0,3.1,85,0.12,,-RA,0.12,VWS V14.00,2013-04-22 06:06:00,
2013-04-22 01:11:00,51.3,46.9,29.03,WNW,303,0.0,0.0,85,0.08,,-RA,0.12,VWS V14.00,2013-04-22 06:11:00,
2013-04-22 01:16:00,51.1,47.0,29.03,WNW,303,0.0,0.0,86,0.08,,-RA,0.12,VWS V14.00,2013-04-22 06:16:00,
2013-04-22 01:21:00,51.3,47.2,29.03,WNW,303,0.0,0.0,86,0.08,,-RA,0.12,VWS V14.00,2013-04-22 06:21:00,
2013-04-22 01:26:00,51.3,47.2,29.03,WNW,303,0.0,0.0,86,0.08,,-RA,0.12,VWS V14.00,2013-04-22 06:26:00,
2013-04-22 01:31:00,51.4,47.7,29.03,WNW,303,0.0,0.0,87,0.04,,-RA,0.12,VWS V14.00,2013-04-22 06:31:00,
2013-04-22 01:36:00,51.4,47.7,29.03,WNW,303,0.0,0.0,87,0.04,,-RA,0.12,VWS V14.00,2013-04-22 06:36:00,
2013-04-22 01:41:00,51.6,47.9,29.03,WNW,303,0.0,0.0,87,0.04,,-RA,0.12,VWS V14.00,2013-04-22 06:41:00,
2013-04-22 01:46:00,51.8,48.1,29.03,WNW,303,0.0,3.1,87,0.04,,-RA,0.12,VWS V14.00,2013-04-22 06:46:00,
2013-04-22 01:51:00,51.8,48.4,29.03,WNW,303,0.0,0.0,88,0.04,,-RA,0.12,VWS V14.00,2013-04-22 06:51:00,
2013-04-22 01:56:00,51.8,48.4,29.03,WNW,303,0.0,0.0,88,0.04,,-RA,0.12,VWS V14.00,2013-04-22 06:56:00,
2013-04-22 02:01:00,51.8,48.4,29.03,WNW,303,0.0,0.0,88,0.04,,-RA,0.12,VWS V14.00,2013-04-22 07:01:00,
2013-04-22 02:06:00,51.8,48.7,29.03,WNW,303,0.0,0.0,89,0.04,,-RA,0.12,VWS V14.00,2013-04-22 07:06:00,
2013-04-22 02:11:00,51.8,48.7,29.03,WNW,303,0.0,0.0,89,0.04,,-RA,0.16,VWS V14.00,2013-04-22 07:11:00,
2013-04-22 02:16:00,52.2,49.0,29.03,WNW,303,0.0,0.0,89,0.04,,-RA,0.16,VWS V14.00,2013-04-22 07:16:00,
2013-04-22 02:21:00,52.2,49.0,29.03,WNW,303,0.0,0.0,89,0.04,,-RA,0.16,VWS V14.00,2013-04-22 07:21:00,
2013-04-22 02:26:00,52.2,49.3,29.00,WNW,303,0.0,0.0,90,0.04,,-RA,0.16,VWS V14.00,2013-04-22 07:26:00,
2013-04-22 02:31:00,52.0,49.1,29.00,NW,306,4.0,4.0,90,0.04,,-RA,0.16,VWS V14.00,2013-04-22 07:31:00,
2013-04-22 02:36:00,52.2,49.3,29.00,North,6,0.0,4.9,90,0.08,,-RA,0.20,VWS V14.00,2013-04-22 07:36:00,
2013-04-22 02:41:00,52.3,49.5,29.00,NE,34,0.0,3.1,90,0.08,,-RA,0.20,VWS V14.00,2013-04-22 07:41:00,
2013-04-22 02:46:00,52.3,49.5,29.00,NE,45,4.0,4.0,90,0.08,,-RA,0.20,VWS V14.00,2013-04-22 07:46:00,
2013-04-22 02:51:00,52.5,49.7,29.00,NE,40,4.0,4.0,90,0.08,,-RA,0.20,VWS V14.00,2013-04-22 07:51:00,
2013-04-22 02:56:00,52.3,49.8,28.97,NE,42,0.0,4.0,91,0.08,,-RA,0.20,VWS V14.00,2013-04-22 07:56:00,
2013-04-22 03:01:00,52.3,49.8,28.97,NE,38,0.0,4.0,91,0.12,,-RA,0.24,VWS V14.00,2013-04-22 08:01:00,
2013-04-22 03:06:00,52.3,49.8,28.97,ENE,65,0.0,4.0,91,0.12,,-RA,0.24,VWS V14.00,2013-04-22 08:06:00,
2013-04-22 03:11:00,52.3,49.8,28.97,NE,38,0.0,0.0,91,0.08,,-RA,0.24,VWS V14.00,2013-04-22 08:11:00,
2013-04-22 03:16:00,52.3,49.8,28.97,ENE,60,0.0,3.6,91,0.08,,-RA,0.24,VWS V14.00,2013-04-22 08:16:00,
2013-04-22 03:21:00,52.3,49.8,28.97,NE,37,0.0,0.0,91,0.08,,-RA,0.24,VWS V14.00,2013-04-22 08:21:00,
2013-04-22 03:26:00,52.0,49.4,28.97,NE,37,0.0,0.0,91,0.08,,-RA,0.24,VWS V14.00,2013-04-22 08:26:00,
2013-04-22 03:31:00,51.8,49.3,28.97,NE,37,0.0,0.0,91,0.08,,-RA,0.24,VWS V14.00,2013-04-22 08:31:00,
2013-04-22 03:36:00,51.8,49.3,28.97,NE,37,0.0,0.0,91,0.08,,-RA,0.24,VWS V14.00,2013-04-22 08:36:00,
2013-04-22 03:41:00,51.8,49.3,28.97,NE,34,0.0,0.0,91,0.04,,-RA,0.24,VWS V14.00,2013-04-22 08:41:00,
2013-04-22 03:46:00,52.0,49.7,28.97,NE,34,0.0,0.0,92,0.04,,-RA,0.24,VWS V14.00,2013-04-22 08:46:00,
2013-04-22 03:51:00,52.0,49.7,28.97,NE,34,0.0,0.0,92,0.04,,-RA,0.24,VWS V14.00,2013-04-22 08:51:00,
2013-04-22 03:56:00,51.6,49.4,28.97,NE,34,0.0,0.0,92,0.04,,-RA,0.24,VWS V14.00,2013-04-22 08:56:00,
2013-04-22 04:01:00,51.6,49.4,28.97,NE,34,0.0,0.0,92,0.00,,-RA,0.24,VWS V14.00,2013-04-22 09:01:00,
2013-04-22 04:06:00,51.4,49.2,28.97,NE,34,0.0,0.0,92,0.00,,-RA,0.24,VWS V14.00,2013-04-22 09:06:00,
2013-04-22 04:11:00,51.1,48.8,28.97,NE,34,0.0,0.0,92,0.00,,-RA,0.24,VWS V14.00,2013-04-22 09:11:00,
2013-04-22 04:16:00,50.9,48.7,28.97,NE,34,0.0,0.0,92,0.00,,-RA,0.24,VWS V14.00,2013-04-22 09:16:00,
2013-04-22 04:21:00,51.1,48.8,28.97,NE,34,0.0,0.0,92,0.00,,-RA,0.24,VWS V14.00,2013-04-22 09:21:00,
2013-04-22 04:26:00,51.4,49.5,28.97,NE,34,0.0,0.0,93,0.00,,-RA,0.24,VWS V14.00,2013-04-22 09:26:00,
2013-04-22 04:31:00,51.6,49.7,28.97,NE,34,0.0,0.0,93,0.00,,-RA,0.24,VWS V14.00,2013-04-22 09:31:00,
2013-04-22 04:36:00,51.8,49.5,28.97,NE,34,0.0,0.0,92,0.00,,-RA,0.24,VWS V14.00,2013-04-22 09:36:00,
2013-04-22 04:41:00,51.8,49.5,28.97,NE,34,0.0,0.0,92,0.00,,-RA,0.24,VWS V14.00,2013-04-22 09:41:00,
2013-04-22 04:46:00,51.8,49.5,28.97,NE,34,0.0,0.0,92,0.00,,-RA,0.24,VWS V14.00,2013-04-22 09:46:00,
2013-04-22 04:51:00,52.0,49.7,28.97,NE,34,0.0,0.0,92,0.00,,-RA,0.24,VWS V14.00,2013-04-22 09:51:00,
2013-04-22 04:56:00,52.0,49.7,28.97,NE,34,0.0,0.0,92,0.00,,-RA,0.24,VWS V14.00,2013-04-22 09:56:00,
2013-04-22 05:01:00,51.8,49.8,28.97,NE,34,0.0,0.0,93,0.00,,-RA,0.00,VWS V14.00,2013-04-22 10:01:00,
2013-04-22 05:06:00,51.8,49.5,28.97,NE,34,0.0,0.0,92,0.00,,-RA,0.24,VWS V14.00,2013-04-22 10:06:00,
2013-04-22 05:11:00,51.6,49.7,28.97,NE,34,0.0,0.0,93,0.00,,OVC070,0.24,VWS V14.00,2013-04-22 10:11:00,
2013-04-22 05:16:00,51.4,49.5,28.97,NE,34,0.0,0.0,93,0.00,,OVC070,0.24,VWS V14.00,2013-04-22 10:16:00,
2013-04-22 05:21:00,51.6,49.7,28.97,NE,34,0.0,0.0,93,0.00,,OVC070,0.24,VWS V14.00,2013-04-22 10:21:00,
2013-04-22 05:26:00,51.4,49.5,28.97,NE,34,0.0,0.0,93,0.00,,OVC070,0.24,VWS V14.00,2013-04-22 10:26:00,
2013-04-22 05:31:00,51.4,49.5,28.97,NE,34,0.0,0.0,93,0.00,,OVC070,0.24,VWS V14.00,2013-04-22 10:31:00,
2013-04-22 05:36:00,51.4,49.5,28.97,NE,34,0.0,0.0,93,0.00,,OVC070,0.24,VWS V14.00,2013-04-22 10:36:00,
2013-04-22 05:41:00,51.4,49.5,28.97,NE,34,0.0,0.0,93,0.00,,OVC070,0.24,VWS V14.00,2013-04-22 10:41:00,
2013-04-22 05:46:00,51.3,49.3,28.97,NE,34,0.0,0.0,93,0.00,,OVC070,0.24,VWS V14.00,2013-04-22 10:46:00,
2013-04-22 05:51:00,51.4,49.5,28.97,NE,51,0.0,0.0,93,0.00,,OVC070,0.24,VWS V14.00,2013-04-22 10:51:00,
2013-04-22 05:56:00,51.4,49.5,28.97,NE,51,0.0,3.1,93,0.00,,OVC070,0.24,VWS V14.00,2013-04-22 10:56:00,
2013-04-22 06:01:00,51.4,49.5,28.97,ENE,61,0.0,0.0,93,0.00,,OVC160,0.24,VWS V14.00,2013-04-22 11:01:00,
2013-04-22 06:06:00,51.4,49.5,28.97,ENE,72,0.0,2.7,93,0.00,,OVC160,0.24,VWS V14.00,2013-04-22 11:06:00,
2013-04-22 06:11:00,51.4,49.5,28.94,ENE,58,0.0,0.0,93,0.00,,OVC160,0.24,VWS V14.00,2013-04-22 11:11:00,
2013-04-22 06:16:00,51.3,49.3,28.94,ENE,58,0.0,0.0,93,0.00,,OVC160,0.24,VWS V14.00,2013-04-22 11:16:00,
2013-04-22 06:21:00,51.4,49.5,28.94,NE,44,0.0,0.0,93,0.00,,OVC160,0.24,VWS V14.00,2013-04-22 11:21:00,
2013-04-22 06:26:00,51.4,49.5,28.94,ENE,62,0.0,3.1,93,0.00,,OVC160,0.24,VWS V14.00,2013-04-22 11:26:00,
2013-04-22 06:31:00,51.4,49.5,28.94,ENE,62,0.0,0.0,93,0.00,,OVC160,0.24,VWS V14.00,2013-04-22 11:31:00,
2013-04-22 06:36:00,51.4,49.5,28.94,ENE,62,0.0,0.0,93,0.00,,OVC160,0.24,VWS V14.00,2013-04-22 11:36:00,
2013-04-22 06:41:00,51.4,49.5,28.94,NE,55,3.1,5.4,93,0.00,,OVC160,0.24,VWS V14.00,2013-04-22 11:41:00,
2013-04-22 06:46:00,51.3,49.3,28.94,ENE,66,0.0,5.4,93,0.00,,OVC160,0.24,VWS V14.00,2013-04-22 11:46:00,
2013-04-22 06:51:00,51.1,49.1,28.94,NE,34,0.0,0.0,93,0.00,,OVC160,0.24,VWS V14.00,2013-04-22 11:51:00,
2013-04-22 06:56:00,51.1,49.1,28.94,NE,34,0.0,0.0,93,0.00,,OVC160,0.24,VWS V14.00,2013-04-22 11:56:00,
2013-04-22 07:01:00,51.1,49.1,28.94,NNE,32,0.0,0.0,93,0.00,,OVC180,0.24,VWS V14.00,2013-04-22 12:01:00,
2013-04-22 07:06:00,51.1,49.1,28.94,NE,36,0.0,0.0,93,0.00,,OVC180,0.24,VWS V14.00,2013-04-22 12:06:00,
2013-04-22 07:11:00,51.1,49.1,28.97,NNE,29,0.0,0.0,93,0.00,,OVC180,0.24,VWS V14.00,2013-04-22 12:11:00,
2013-04-22 07:16:00,51.1,49.1,28.97,NNE,29,0.0,0.0,93,0.00,,OVC180,0.24,VWS V14.00,2013-04-22 12:16:00,
2013-04-22 07:21:00,51.1,49.1,28.97,ENE,60,3.1,3.6,93,0.00,,OVC180,0.24,VWS V14.00,2013-04-22 12:21:00,
2013-04-22 07:26:00,50.9,48.7,28.97,ENE,67,0.0,3.6,92,0.00,,OVC180,0.24,VWS V14.00,2013-04-22 12:26:00,
2013-04-22 07:31:00,50.9,48.7,28.97,ENE,74,5.4,5.4,92,0.00,,OVC180,0.24,VWS V14.00,2013-04-22 12:31:00,
2013-04-22 07:36:00,50.9,48.7,28.97,East,79,0.0,5.4,92,0.00,,OVC180,0.24,VWS V14.00,2013-04-22 12:36:00,
2013-04-22 07:41:00,50.5,48.3,28.94,NE,54,5.4,6.3,92,0.00,,OVC180,0.24,VWS V14.00,2013-04-22 12:41:00,
2013-04-22 07:46:00,50.5,48.3,28.94,ENE,70,4.0,6.3,92,0.00,,OVC180,0.24,VWS V14.00,2013-04-22 12:46:00,
2013-04-22 07:51:00,50.5,48.3,28.94,NE,50,2.7,3.1,92,0.00,,OVC180,0.24,VWS V14.00,2013-04-22 12:51:00,
2013-04-22 07:56:00,50.5,48.3,28.94,ENE,59,4.5,5.8,92,0.00,,OVC180,0.24,VWS V14.00,2013-04-22 12:56:00,
2013-04-22 08:01:00,50.5,48.3,28.94,ENE,58,2.7,2.7,92,0.00,,-RA,0.24,VWS V14.00,2013-04-22 13:01:00,
2013-04-22 08:06:00,50.5,48.3,28.94,NE,52,0.0,4.0,92,0.00,,-RA,0.24,VWS V14.00,2013-04-22 13:06:00,
2013-04-22 08:11:00,50.7,48.5,28.94,NE,56,2.7,4.9,92,0.00,,-RA,0.24,VWS V14.00,2013-04-22 13:11:00,
2013-04-22 08:16:00,50.5,48.3,28.94,East,91,2.7,4.9,92,0.00,,-RA,0.24,VWS V14.00,2013-04-22 13:16:00,
2013-04-22 08:21:00,50.4,48.1,28.94,NE,43,0.0,3.6,92,0.00,,-RA,0.24,VWS V14.00,2013-04-22 13:21:00,
2013-04-22 08:26:00,50.4,48.1,28.94,ENE,63,3.6,5.8,92,0.00,,-RA,0.24,VWS V14.00,2013-04-22 13:26:00,
2013-04-22 08:31:00,50.4,48.1,28.94,ENE,70,4.0,4.0,92,0.00,,-RA,0.24,VWS V14.00,2013-04-22 13:31:00,
2013-04-22 08:36:00,50.5,48.3,28.94,ENE,63,2.2,4.0,92,0.00,,-RA,0.24,VWS V14.00,2013-04-22 13:36:00,
2013-04-22 08:41:00,50.7,48.5,28.94,NE,34,0.0,0.0,92,0.00,,-RA,0.24,VWS V14.00,2013-04-22 13:41:00,
2013-04-22 08:46:00,50.7,48.5,28.94,NE,45,2.2,4.0,92,0.00,,-RA,0.24,VWS V14.00,2013-04-22 13:46:00,
2013-04-22 08:51:00,51.1,48.8,28.94,ENE,69,2.2,4.0,92,0.00,,-RA,0.24,VWS V14.00,2013-04-22 13:51:00,
2013-04-22 08:56:00,51.6,49.4,28.94,ENE,67,0.0,4.0,92,0.00,,-RA,0.24,VWS V14.00,2013-04-22 13:56:00,
2013-04-22 09:01:00,51.3,49.0,28.94,ENE,58,0.0,0.0,92,0.00,,OVC095,0.24,VWS V14.00,2013-04-22 14:01:00,
2013-04-22 09:06:00,50.2,48.0,28.94,NNE,32,0.0,0.0,92,0.00,,OVC095,0.24,VWS V14.00,2013-04-22 14:06:00,
2013-04-22 09:11:00,49.6,47.4,28.94,NNE,14,0.0,0.0,92,0.00,,OVC095,0.24,VWS V14.00,2013-04-22 14:11:00,
2013-04-22 09:16:00,50.7,45.1,28.94,NNE,15,0.0,0.0,81,0.00,,OVC095,0.24,VWS V14.00,2013-04-22 14:16:00,
2013-04-22 09:21:00,51.6,39.0,28.94,ENE,76,3.1,4.0,62,0.00,,OVC095,0.24,VWS V14.00,2013-04-22 14:21:00,
2013-04-22 09:26:00,53.2,41.8,28.94,East,83,0.0,4.9,65,0.00,,OVC095,0.24,VWS V14.00,2013-04-22 14:26:00,
2013-04-22 09:31:00,54.1,38.8,28.94,East,84,2.7,4.0,56,0.00,,OVC095,0.24,VWS V14.00,2013-04-22 14:31:00,
2013-04-22 09:36:00,55.2,35.4,28.94,East,86,2.7,5.8,47,0.00,,OVC095,0.24,VWS V14.00,2013-04-22 14:36:00,
2013-04-22 09:41:00,55.9,32.0,28.94,SE,133,2.7,3.6,40,0.00,,OVC095,0.24,VWS V14.00,2013-04-22 14:41:00,
2013-04-22 09:46:00,56.3,29.7,28.94,SE,130,6.3,6.3,36,0.00,,OVC095,0.24,VWS V14.00,2013-04-22 14:46:00,
2013-04-22 09:51:00,56.3,29.7,28.94,East,87,0.0,3.6,36,0.00,,OVC095,0.24,VWS V14.00,2013-04-22 14:51:00,
2013-04-22 09:56:00,56.1,28.9,28.94,East,96,2.7,11.0,35,0.00,,OVC095,0.24,VWS V14.00,2013-04-22 14:56:00,
2013-04-22 10:01:00,56.7,28.6,28.94,NE,56,4.5,4.5,34,0.00,,-RA,0.24,VWS V14.00,2013-04-22 15:01:00,
2013-04-22 10:06:00,57.2,28.4,28.94,ESE,114,3.1,5.8,33,0.00,,-RA,0.24,VWS V14.00,2013-04-22 15:06:00,
2013-04-22 10:11:00,56.8,27.3,28.94,East,86,5.8,5.8,32,0.00,,-RA,0.24,VWS V14.00,2013-04-22 15:11:00,
2013-04-22 10:16:00,56.5,27.0,28.94,ESE,106,5.4,6.3,32,0.00,,-RA,0.24,VWS V14.00,2013-04-22 15:16:00,
2013-04-22 10:21:00,55.6,27.7,28.94,ESE,114,4.0,5.8,34,0.00,,-RA,0.24,VWS V14.00,2013-04-22 15:21:00,
2013-04-22 10:26:00,54.5,28.1,28.94,ENE,78,0.0,6.3,36,0.00,,-RA,0.24,VWS V14.00,2013-04-22 15:26:00,
2013-04-22 10:31:00,54.5,28.1,28.94,East,92,4.0,4.9,36,0.00,,-RA,0.24,VWS V14.00,2013-04-22 15:31:00,
2013-04-22 10:36:00,55.2,28.8,28.94,East,95,3.1,6.3,36,0.00,,-RA,0.24,VWS V14.00,2013-04-22 15:36:00,
2013-04-22 10:41:00,56.1,28.9,28.94,SE,141,2.7,3.6,35,0.00,,-RA,0.24,VWS V14.00,2013-04-22 15:41:00,
2013-04-22 10:46:00,56.7,26.4,28.94,East,86,5.4,5.8,31,0.00,,-RA,0.24,VWS V14.00,2013-04-22 15:46:00,
2013-04-22 10:51:00,57.6,28.0,28.94,East,96,3.6,3.6,32,0.00,,-RA,0.24,VWS V14.00,2013-04-22 15:51:00,
2013-04-22 10:56:00,57.4,24.6,28.94,ENE,67,5.4,8.1,28,0.00,,-RA,0.24,VWS V14.00,2013-04-22 15:56:00,
2013-04-22 11:01:00,57.7,24.9,28.94,East,100,5.4,7.6,28,0.00,,OVC085,0.24,VWS V14.00,2013-04-22 16:01:00,
2013-04-22 11:06:00,58.5,25.5,28.94,SE,126,3.6,7.6,28,0.00,,OVC085,0.24,VWS V14.00,2013-04-22 16:06:00,
2013-04-22 11:11:00,58.5,25.5,28.94,East,101,0.0,3.1,28,0.00,,OVC085,0.24,VWS V14.00,2013-04-22 16:11:00,
2013-04-22 11:16:00,57.9,24.2,28.94,SE,130,5.4,5.4,27,0.00,,OVC085,0.24,VWS V14.00,2013-04-22 16:16:00,
2013-04-22 11:21:00,57.4,25.4,28.94,ESE,106,0.0,0.0,29,0.00,,OVC085,0.24,VWS V14.00,2013-04-22 16:21:00,
2013-04-22 11:26:00,57.0,25.1,28.94,ENE,73,3.1,5.4,29,0.00,,OVC085,0.24,VWS V14.00,2013-04-22 16:26:00,
2013-04-22 11:31:00,57.6,25.6,28.94,East,94,3.1,4.0,29,0.00,,OVC085,0.24,VWS V14.00,2013-04-22 16:31:00,
2013-04-22 11:36:00,58.3,25.3,28.94,East,99,3.1,6.3,28,0.00,,OVC085,0.24,VWS V14.00,2013-04-22 16:36:00,
2013-04-22 11:41:00,58.3,24.5,28.94,ESE,110,5.4,5.4,27,0.00,,OVC085,0.24,VWS V14.00,2013-04-22 16:41:00,
2013-04-22 11:46:00,58.1,25.2,28.94,East,82,0.0,6.3,28,0.00,,OVC085,0.24,VWS V14.00,2013-04-22 16:46:00,
2013-04-22 11:51:00,57.9,25.0,28.94,East,93,4.9,6.7,28,0.00,,OVC085,0.24,VWS V14.00,2013-04-22 16:51:00,
2013-04-22 11:56:00,57.4,24.6,28.94,ESE,102,2.7,6.7,28,0.00,,OVC085,0.24,VWS V14.00,2013-04-22 16:56:00,
2013-04-22 12:01:00,57.7,24.9,28.94,East,91,4.0,6.3,28,0.00,,OVC070,0.24,VWS V14.00,2013-04-22 17:01:00,
2013-04-22 12:06:00,57.9,25.0,28.94,East,95,3.6,6.3,28,0.00,,OVC070,0.24,VWS V14.00,2013-04-22 17:06:00,
2013-04-22 12:11:00,57.4,25.4,28.91,East,88,2.7,4.9,29,0.00,,OVC070,0.24,VWS V14.00,2013-04-22 17:11:00,
2013-04-22 12:16:00,57.7,24.9,28.91,ENE,68,2.7,6.3,28,0.00,,OVC070,0.24,VWS V14.00,2013-04-22 17:16:00,
2013-04-22 12:21:00,58.3,25.3,28.91,ENE,64,0.0,8.1,28,0.00,,OVC070,0.24,VWS V14.00,2013-04-22 17:21:00,
2013-04-22 12:26:00,59.5,25.5,28.91,ENE,67,3.6,8.1,27,0.00,,OVC070,0.24,VWS V14.00,2013-04-22 17:26:00,
2013-04-22 12:31:00,60.1,25.1,28.91,NE,35,0.0,0.0,26,0.00,,OVC070,0.24,VWS V14.00,2013-04-22 17:31:00,
2013-04-22 12:36:00,59.7,24.8,28.91,East,80,2.2,3.1,26,0.00,,OVC070,0.24,VWS V14.00,2013-04-22 17:36:00,
2013-04-22 12:41:00,58.3,24.5,28.91,NNE,33,4.0,5.8,27,0.00,,OVC070,0.24,VWS V14.00,2013-04-22 17:41:00,
2013-04-22 12:46:00,58.3,25.3,28.91,ENE,67,2.2,7.2,28,0.00,,OVC070,0.24,VWS V14.00,2013-04-22 17:46:00,
2013-04-22 12:51:00,59.2,25.2,28.91,NE,54,2.7,5.4,27,0.00,,OVC070,0.24,VWS V14.00,2013-04-22 17:51:00,
2013-04-22 12:56:00,59.7,24.8,28.88,East,84,3.6,6.3,26,0.00,,OVC070,0.24,VWS V14.00,2013-04-22 17:56:00,
2013-04-22 13:01:00,61.7,26.5,28.88,ENE,71,0.0,0.0,26,0.00,,OVC070,0.24,VWS V14.00,2013-04-22 18:01:00,
2013-04-22 13:06:00,63.7,26.2,28.88,ENE,69,0.0,3.6,24,0.00,,OVC070,0.24,VWS V14.00,2013-04-22 18:06:00,
2013-04-22 13:11:00,63.1,25.8,28.88,NE,50,0.0,5.4,24,0.00,,OVC070,0.24,VWS V14.00,2013-04-22 18:11:00,
2013-04-22 13:16:00,64.9,26.3,28.88,ENE,78,0.0,5.4,23,0.00,,OVC070,0.24,VWS V14.00,2013-04-22 18:16:00,
2013-04-22 13:21:00,65.7,26.9,28.88,NNE,29,3.6,5.8,23,0.00,,OVC070,0.24,VWS V14.00,2013-04-22 18:21:00,
2013-04-22 13:26:00,67.5,28.4,28.88,NE,42,0.0,5.8,23,0.00,,OVC070,0.24,VWS V14.00,2013-04-22 18:26:00,
2013-04-22 13:31:00,72.9,28.2,28.88,NNE,21,3.1,5.4,19,0.00,,OVC070,0.24,VWS V14.00,2013-04-22 18:31:00,
2013-04-22 13:36:00,73.2,24.4,28.88,NNE,13,0.0,5.4,16,0.00,,OVC070,0.24,VWS V14.00,2013-04-22 18:36:00,
2013-04-22 13:41:00,73.8,24.8,28.85,ESE,104,2.7,3.6,16,0.00,,OVC070,0.24,VWS V14.00,2013-04-22 18:41:00,
2013-04-22 13:46:00,70.9,23.9,28.85,NE,50,3.1,5.4,17,0.00,,OVC070,0.24,VWS V14.00,2013-04-22 18:46:00,
2013-04-22 13:51:00,71.6,23.1,28.85,ENE,67,6.3,6.3,16,0.00,,OVC070,0.24,VWS V14.00,2013-04-22 18:51:00,
2013-04-22 13:56:00,71.2,26.9,28.85,East,98,4.0,8.3,19,0.00,,OVC070,0.24,VWS V14.00,2013-04-22 18:56:00,
2013-04-22 14:01:00,71.8,23.2,28.85,ENE,68,3.6,3.6,16,0.00,,OVC260,0.24,VWS V14.00,2013-04-22 19:01:00,
2013-04-22 14:06:00,75.0,25.8,28.85,SSE,162,3.6,5.4,16,0.00,,OVC260,0.24,VWS V14.00,2013-04-22 19:06:00,
2013-04-22 14:11:00,76.6,25.6,28.85,ESE,116,6.3,6.3,15,0.00,,OVC260,0.24,VWS V14.00,2013-04-22 19:11:00,
2013-04-22 14:16:00,77.0,25.9,28.85,ESE,110,3.6,6.3,15,0.00,,OVC260,0.24,VWS V14.00,2013-04-22 19:16:00,
2013-04-22 14:21:00,75.7,24.9,28.85,ESE,122,3.6,5.8,15,0.00,,OVC260,0.24,VWS V14.00,2013-04-22 19:21:00,
2013-04-22 14:26:00,75.6,24.7,28.85,SE,133,4.0,13.6,15,0.00,,OVC260,0.24,VWS V14.00,2013-04-22 19:26:00,
2013-04-22 14:31:00,76.3,25.3,28.85,SE,129,5.4,6.3,15,0.00,,OVC260,0.24,VWS V14.00,2013-04-22 19:31:00,
2013-04-22 14:36:00,75.0,25.8,28.85,East,91,4.0,8.7,16,0.00,,OVC260,0.24,VWS V14.00,2013-04-22 19:36:00,
2013-04-22 14:41:00,74.8,25.7,28.82,ESE,107,5.4,7.6,16,0.00,,OVC260,0.24,VWS V14.00,2013-04-22 19:41:00,
2013-04-22 14:46:00,73.2,24.4,28.82,East,96,4.0,8.1,16,0.00,,OVC260,0.24,VWS V14.00,2013-04-22 19:46:00,
2013-04-22 14:51:00,71.4,24.4,28.82,East,101,5.8,7.6,17,0.00,,OVC260,0.24,VWS V14.00,2013-04-22 19:51:00,
2013-04-22 14:56:00,73.2,24.4,28.82,NE,51,4.0,7.6,16,0.00,,OVC260,0.24,VWS V14.00,2013-04-22 19:56:00,
2013-04-22 15:01:00,73.9,25.0,28.82,East,86,5.4,5.4,16,0.00,,OVC260,0.24,VWS V14.00,2013-04-22 20:01:00,
2013-04-22 15:06:00,74.8,25.7,28.82,ESE,104,3.1,8.1,16,0.00,,OVC260,0.24,VWS V14.00,2013-04-22 20:06:00,
2013-04-22 15:11:00,72.5,23.8,28.82,East,97,7.6,10.5,16,0.00,,OVC260,0.24,VWS V14.00,2013-04-22 20:11:00,
2013-04-22 15:16:00,71.4,24.4,28.82,ENE,76,4.9,10.5,17,0.00,,OVC260,0.24,VWS V14.00,2013-04-22 20:16:00,
2013-04-22 15:21:00,71.6,23.1,28.82,SE,126,4.9,6.3,16,0.00,,OVC260,0.24,VWS V14.00,2013-04-22 20:21:00,
2013-04-22 15:26:00,70.9,23.9,28.79,East,92,5.4,9.6,17,0.00,,OVC260,0.24,VWS V14.00,2013-04-22 20:26:00,
2013-04-22 15:31:00,69.8,23.1,28.79,ENE,61,4.0,4.9,17,0.00,,OVC260,0.24,VWS V14.00,2013-04-22 20:31:00,
2013-04-22 15:36:00,70.9,23.9,28.79,ENE,64,5.8,7.6,17,0.00,,OVC260,0.24,VWS V14.00,2013-04-22 20:36:00,
2013-04-22 15:41:00,70.9,23.9,28.79,ESE,113,3.1,4.0,17,0.00,,OVC260,0.24,VWS V14.00,2013-04-22 20:41:00,
2013-04-22 15:46:00,71.1,24.1,28.79,East,97,6.3,8.7,17,0.00,,OVC260,0.24,VWS V14.00,2013-04-22 20:46:00,
2013-04-22 15:51:00,70.3,23.5,28.79,ESE,119,4.9,5.8,17,0.00,,OVC260,0.24,VWS V14.00,2013-04-22 20:51:00,
2013-04-22 15:56:00,69.8,23.1,28.79,ENE,70,3.1,6.3,17,0.00,,OVC260,0.24,VWS V14.00,2013-04-22 20:56:00,
2013-04-22 16:01:00,68.5,22.0,28.79,SE,143,7.2,7.2,17,0.00,,OVC200,0.24,VWS V14.00,2013-04-22 21:01:00,
2013-04-22 16:06:00,68.2,21.7,28.79,NE,44,5.4,8.1,17,0.00,,OVC200,0.24,VWS V14.00,2013-04-22 21:06:00,
2013-04-22 16:11:00,67.5,21.2,28.79,ENE,61,9.2,9.2,17,0.00,,OVC200,0.24,VWS V14.00,2013-04-22 21:11:00,
2013-04-22 16:16:00,67.5,21.2,28.79,ESE,103,6.3,11.0,17,0.00,,OVC200,0.24,VWS V14.00,2013-04-22 21:16:00,
2013-04-22 16:21:00,68.4,21.9,28.79,ENE,62,5.4,5.4,17,0.00,,OVC200,0.24,VWS V14.00,2013-04-22 21:21:00,
2013-04-22 16:26:00,67.8,21.5,28.79,East,96,8.7,11.0,17,0.00,,OVC200,0.24,VWS V14.00,2013-04-22 21:26:00,
2013-04-22 16:31:00,68.2,21.7,28.79,SSE,150,3.6,8.1,17,0.00,,OVC200,0.24,VWS V14.00,2013-04-22 21:31:00,
2013-04-22 16:36:00,67.8,21.5,28.79,East,96,7.6,8.1,17,0.00,,OVC200,0.24,VWS V14.00,2013-04-22 21:36:00,
2013-04-22 16:41:00,67.1,20.9,28.79,SE,131,4.0,4.9,17,0.00,,OVC200,0.24,VWS V14.00,2013-04-22 21:41:00,
2013-04-22 16:46:00,66.2,20.1,28.79,ESE,119,4.0,8.1,17,0.00,,OVC200,0.24,VWS V14.00,2013-04-22 21:46:00,
2013-04-22 16:51:00,65.5,20.9,28.79,SE,124,11.0,11.0,18,0.00,,OVC200,0.24,VWS V14.00,2013-04-22 21:51:00,
2013-04-22 16:55:00,65.3,20.7,28.79,East,100,4.9,11.0,18,0.00,,OVC200,0.24,VWS V14.00,2013-04-22 21:55:00,
2013-04-22 17:00:00,65.5,20.9,28.79,SE,136,10.1,13.2,18,0.00,,OVC120,0.24,VWS V14.00,2013-04-22 22:00:00,
2013-04-22 17:05:00,65.1,20.6,28.79,SSE,147,8.3,15.4,18,0.00,,OVC120,0.24,VWS V14.00,2013-04-22 22:05:00,
2013-04-22 17:10:00,64.2,19.9,28.79,ESE,113,8.3,8.3,18,0.00,,OVC120,0.24,VWS V14.00,2013-04-22 22:10:00,
2013-04-22 17:15:00,60.3,21.3,28.79,East,92,5.4,13.6,22,0.00,,OVC120,0.24,VWS V14.00,2013-04-22 22:15:00,
2013-04-22 17:20:00,57.4,23.7,28.79,ENE,61,8.1,9.6,27,0.00,,OVC120,0.24,VWS V14.00,2013-04-22 22:20:00,
2013-04-22 17:25:00,56.8,25.8,28.79,NE,51,8.3,9.6,30,0.00,,OVC120,0.24,VWS V14.00,2013-04-22 22:25:00,
2013-04-22 17:30:00,56.8,27.3,28.79,SE,136,5.4,5.4,32,0.00,,OVC120,0.24,VWS V14.00,2013-04-22 22:30:00,
2013-04-22 17:35:00,57.2,29.1,28.79,East,93,2.7,5.8,34,0.00,,OVC120,0.24,VWS V14.00,2013-04-22 22:35:00,
2013-04-22 17:40:00,57.2,29.8,28.79,SE,129,3.6,3.6,35,0.00,,OVC120,0.24,VWS V14.00,2013-04-22 22:40:00,
2013-04-22 17:45:00,57.6,29.4,28.79,SSE,151,5.8,12.3,34,0.00,,OVC120,0.24,VWS V14.00,2013-04-22 22:45:00,
2013-04-22 17:50:00,57.4,27.8,28.79,SE,133,8.3,12.8,32,0.00,,OVC120,0.24,VWS V14.00,2013-04-22 22:50:00,
2013-04-22 17:55:00,57.0,27.5,28.82,ESE,116,8.1,12.8,32,0.00,,OVC120,0.24,VWS V14.00,2013-04-22 22:55:00,
2013-04-22 18:00:00,56.5,27.8,28.82,SE,128,8.3,8.7,33,0.00,,-RA,0.24,VWS V14.00,2013-04-22 23:00:00,
2013-04-22 18:05:00,55.4,28.9,28.82,ESE,122,10.5,17.4,36,0.00,,-RA,0.24,VWS V14.00,2013-04-22 23:05:00,
2013-04-22 18:10:00,54.9,29.8,28.82,SE,125,8.1,12.8,38,0.00,,-RA,0.24,VWS V14.00,2013-04-22 23:10:00,
2013-04-22 18:15:00,54.1,32.7,28.82,ESE,122,10.5,15.4,44,0.00,,-RA,0.24,VWS V14.00,2013-04-22 23:15:00,
2013-04-22 18:20:00,53.1,33.9,28.82,SE,133,8.1,8.3,48,0.00,,-RA,0.24,VWS V14.00,2013-04-22 23:20:00,
2013-04-22 18:25:00,52.5,34.9,28.82,SSE,148,5.4,10.5,51,0.00,,-RA,0.24,VWS V14.00,2013-04-22 23:25:00,
2013-04-22 18:30:00,52.0,35.9,28.82,SE,131,3.6,8.3,54,0.00,,-RA,0.24,VWS V14.00,2013-04-22 23:30:00,
2013-04-22 18:35:00,51.8,36.2,28.82,SSE,150,5.4,8.7,55,0.00,,-RA,0.24,VWS V14.00,2013-04-22 23:35:00,
2013-04-22 18:40:00,51.6,37.3,28.82,ESE,120,6.3,6.3,58,0.00,,-RA,0.24,VWS V14.00,2013-04-22 23:40:00,
2013-04-22 18:45:00,51.4,37.6,28.82,SE,131,3.1,6.3,59,0.00,,-RA,0.24,VWS V14.00,2013-04-22 23:45:00,
2013-04-22 18:50:00,51.4,38.9,28.82,SSE,149,5.8,5.8,62,0.00,,-RA,0.24,VWS V14.00,2013-04-22 23:50:00,
2013-04-22 18:55:00,51.3,37.9,28.82,SSE,155,4.9,8.7,60,0.00,,-RA,0.24,VWS V14.00,2013-04-22 23:55:00,
2013-04-22 19:00:00,51.3,37.9,28.82,ESE,118,2.7,3.6,60,0.00,,-RA,0.24,VWS V14.00,2013-04-23 00:00:00,
2013-04-22 19:05:00,51.1,37.7,28.82,SSE,151,7.6,10.1,60,0.00,,-RA,0.24,VWS V14.00,2013-04-23 00:05:00,
2013-04-22 19:10:00,51.1,37.7,28.82,SE,138,4.0,5.8,60,0.00,,-RA,0.24,VWS V14.00,2013-04-23 00:10:00,
2013-04-22 19:15:00,51.1,38.1,28.82,SE,127,4.0,8.7,61,0.00,,-RA,0.24,VWS V14.00,2013-04-23 00:15:00,
2013-04-22 19:20:00,51.1,38.5,28.82,SE,142,3.6,3.6,62,0.00,,-RA,0.24,VWS V14.00,2013-04-23 00:20:00,
2013-04-22 19:25:00,51.1,38.5,28.85,SE,141,6.3,8.3,62,0.00,,-RA,0.24,VWS V14.00,2013-04-23 00:25:00,
2013-04-22 19:30:00,51.1,38.9,28.85,SSE,153,8.3,10.5,63,0.00,,-RA,0.24,VWS V14.00,2013-04-23 00:30:00,
2013-04-22 19:35:00,51.3,38.3,28.85,SSE,147,8.3,10.5,61,0.00,,-RA,0.24,VWS V14.00,2013-04-23 00:35:00,
2013-04-22 19:40:00,51.3,38.7,28.85,SSE,153,2.7,5.4,62,0.00,,-RA,0.24,VWS V14.00,2013-04-23 00:40:00,
2013-04-22 19:45:00,51.3,39.9,28.85,SE,130,4.0,8.3,65,0.00,,-RA,0.24,VWS V14.00,2013-04-23 00:45:00,
2013-04-22 19:50:00,51.4,41.6,28.85,SE,140,4.0,7.6,69,0.00,,-RA,0.24,VWS V14.00,2013-04-23 00:50:00,
2013-04-22 19:55:00,51.6,42.5,28.85,SE,128,7.6,8.1,71,0.00,,-RA,0.24,VWS V14.00,2013-04-23 00:55:00,
2013-04-22 20:00:00,51.6,43.6,28.85,SSE,165,2.7,2.7,74,0.04,,-RA,0.28,VWS V14.00,2013-04-23 01:00:00,
2013-04-22 20:05:00,51.8,44.1,28.85,South,171,3.6,8.7,75,0.04,,-RA,0.28,VWS V14.00,2013-04-23 01:05:00,
2013-04-22 20:10:00,51.6,44.7,28.85,SE,146,6.3,8.3,77,0.04,,-RA,0.28,VWS V14.00,2013-04-23 01:10:00,
2013-04-22 20:15:00,51.6,45.3,28.85,SSE,160,4.0,9.6,79,0.04,,-RA,0.28,VWS V14.00,2013-04-23 01:15:00,
2013-04-22 20:20:00,51.6,45.7,28.85,South,184,5.8,5.8,80,0.04,,-RA,0.28,VWS V14.00,2013-04-23 01:20:00,
2013-04-22 20:25:00,50.2,43.9,28.88,SW,229,2.7,10.1,79,0.08,,-RA,0.31,VWS V14.00,2013-04-23 01:25:00,
2013-04-22 20:30:00,48.0,41.8,28.88,SSW,203,8.7,8.7,79,0.08,,-RA,0.31,VWS V14.00,2013-04-23 01:30:00,
2013-04-22 20:35:00,46.9,41.1,28.88,SSE,162,3.6,8.7,80,0.08,,-RA,0.31,VWS V14.00,2013-04-23 01:35:00,
2013-04-22 20:40:00,45.5,39.7,28.88,SSW,198,6.7,11.0,80,0.08,,-RA,0.31,VWS V14.00,2013-04-23 01:40:00,
2013-04-22 20:45:00,44.8,39.3,28.88,SW,219,3.1,12.8,81,0.08,,-RA,0.31,VWS V14.00,2013-04-23 01:45:00,
2013-04-22 20:50:00,44.1,38.9,28.88,SSW,203,8.3,8.3,82,0.08,,-RA,0.31,VWS V14.00,2013-04-23 01:50:00,
2013-04-22 20:55:00,43.9,38.8,28.88,SSW,204,4.0,14.5,82,0.08,,-RA,0.31,VWS V14.00,2013-04-23 01:55:00,
2013-04-22 21:00:00,43.9,39.1,28.88,WNW,293,5.8,8.3,83,0.04,,-RA,0.31,VWS V14.00,2013-04-23 02:00:00,
2013-04-22 21:05:00,43.7,39.2,28.88,SSW,205,4.9,10.5,84,0.04,,-RA,0.31,VWS V14.00,2013-04-23 02:05:00,
2013-04-22 21:10:00,43.3,38.8,28.88,WNW,302,5.4,5.4,84,0.04,,-RA,0.31,VWS V14.00,2013-04-23 02:10:00,
2013-04-22 21:15:00,43.0,38.5,28.88,WNW,285,4.0,12.8,84,0.04,,-RA,0.31,VWS V14.00,2013-04-23 02:15:00,
2013-04-22 21:20:00,42.8,38.3,28.88,West,278,4.0,8.1,84,0.04,,-RA,0.31,VWS V14.00,2013-04-23 02:20:00,
2013-04-22 21:25:00,42.6,38.4,28.88,South,177,4.0,10.5,85,0.04,,-RA,0.31,VWS V14.00,2013-04-23 02:25:00,
2013-04-22 21:30:00,42.3,38.1,28.91,West,265,2.7,7.6,85,0.00,,-RA,0.31,VWS V14.00,2013-04-23 02:30:00,
2013-04-22 21:35:00,41.7,37.5,28.91,WSW,242,5.8,7.6,85,0.00,,-RA,0.31,VWS V14.00,2013-04-23 02:35:00,
2013-04-22 21:40:00,41.5,37.4,28.91,WSW,244,5.8,5.8,85,0.00,,-RA,0.31,VWS V14.00,2013-04-23 02:40:00,
2013-04-22 21:45:00,41.5,37.4,28.91,West,269,7.2,8.3,85,0.00,,-RA,0.31,VWS V14.00,2013-04-23 02:45:00,
2013-04-22 21:50:00,41.2,37.0,28.91,SSW,198,0.0,3.6,85,0.00,,-RA,0.31,VWS V14.00,2013-04-23 02:50:00,
2013-04-22 21:55:00,40.8,37.0,28.91,South,181,5.4,9.6,86,0.00,,-RA,0.31,VWS V14.00,2013-04-23 02:55:00,
2013-04-22 22:00:00,40.3,36.4,28.91,SSW,210,2.7,6.3,86,0.00,,-RA,0.31,VWS V14.00,2013-04-23 03:00:00,
2013-04-22 22:05:00,40.3,36.4,28.91,SW,226,2.7,10.1,86,0.00,,-RA,0.31,VWS V14.00,2013-04-23 03:05:00,
2013-04-22 22:10:00,40.1,36.3,28.91,SW,224,3.1,5.4,86,0.00,,-RA,0.31,VWS V14.00,2013-04-23 03:10:00,
2013-04-22 22:15:00,40.1,36.3,28.91,SW,218,2.7,8.3,86,0.00,,-RA,0.31,VWS V14.00,2013-04-23 03:15:00,
2013-04-22 22:20:00,39.7,35.9,28.91,WSW,238,3.6,14.5,86,0.00,,-RA,0.31,VWS V14.00,2013-04-23 03:20:00,
2013-04-22 22:25:00,39.4,35.5,28.94,West,280,11.9,14.5,86,0.04,,-RA,0.35,VWS V14.00,2013-04-23 03:25:00,
2013-04-22 22:30:00,39.0,35.2,28.94,WSW,245,5.8,5.8,86,0.04,,-RA,0.35,VWS V14.00,2013-04-23 03:30:00,
2013-04-22 22:35:00,38.8,35.0,28.94,WSW,252,6.7,10.5,86,0.04,,-RA,0.35,VWS V14.00,2013-04-23 03:35:00,
2013-04-22 22:40:00,38.8,35.0,28.94,West,259,7.6,7.6,86,0.04,,-RA,0.35,VWS V14.00,2013-04-23 03:40:00,
2013-04-22 22:45:00,38.5,34.7,28.94,WNW,289,2.7,11.0,86,0.04,,-RA,0.35,VWS V14.00,2013-04-23 03:45:00,
2013-04-22 22:50:00,38.1,34.3,28.94,SW,217,3.6,6.3,86,0.04,,-RA,0.35,VWS V14.00,2013-04-23 03:50:00,
2013-04-22 22:55:00,37.9,34.1,28.94,SW,225,11.0,13.2,86,0.04,,-RA,0.35,VWS V14.00,2013-04-23 03:55:00,
2013-04-22 23:00:00,37.8,34.0,28.94,WSW,247,9.6,9.6,86,0.04,,-RA,0.35,VWS V14.00,2013-04-23 04:00:00,
2013-04-22 23:01:00,37.8,34.0,28.94,West,261,7.2,9.6,86,0.04,,-RA,0.35,VWS V14.00,2013-04-23 04:01:00,
2013-04-22 23:06:00,37.6,33.8,28.94,SSW,207,7.6,9.6,86,0.04,,-RA,0.35,VWS V14.00,2013-04-23 04:06:00,
2013-04-22 23:11:00,37.2,33.4,28.94,WSW,240,8.3,10.5,86,0.04,,-RA,0.35,VWS V14.00,2013-04-23 04:11:00,
2013-04-22 23:16:00,37.2,33.4,28.94,SW,235,5.8,12.3,86,0.04,,-RA,0.35,VWS V14.00,2013-04-23 04:16:00,
2013-04-22 23:21:00,37.0,33.2,28.94,SW,226,5.4,8.7,86,0.04,,-RA,0.35,VWS V14.00,2013-04-23 04:21:00,
2013-04-22 23:26:00,37.0,33.0,28.94,WSW,256,6.3,8.7,85,0.04,,-RA,0.35,VWS V14.00,2013-04-23 04:26:00,
2013-04-22 23:31:00,36.9,32.8,28.94,WSW,245,2.7,4.9,85,0.00,,-RA,0.35,VWS V14.00,2013-04-23 04:31:00,
2013-04-22 23:36:00,36.9,32.8,28.94,West,268,6.3,11.0,85,0.00,,-RA,0.35,VWS V14.00,2013-04-23 04:36:00,
2013-04-22 23:41:00,36.7,32.9,28.91,West,271,5.8,12.3,86,0.00,,-RA,0.35,VWS V14.00,2013-04-23 04:41:00,
2013-04-22 23:46:00,36.5,32.7,28.91,WSW,247,5.4,12.3,86,0.00,,-RA,0.35,VWS V14.00,2013-04-23 04:46:00,
2013-04-22 23:51:00,36.5,32.7,28.91,SW,230,8.1,9.2,86,0.00,,-RA,0.35,VWS V14.00,2013-04-23 04:51:00,
2013-04-22 23:56:00,36.5,32.7,28.91,SW,232,4.9,9.2,86,0.00,,-RA,0.35,VWS V14.00,2013-04-23 04:56:00,